createdAt,value
2019-04-27T00:02:22.464Z,7.70
2019-04-27T00:05:54.190Z,7.63
2019-04-27T00:09:00.414Z,7.79
2019-04-27T00:12:33.073Z,7.87
2019-04-27T00:15:49.769Z,7.85
2019-04-27T00:19:03.759Z,7.79
2019-04-27T00:22:17.388Z,7.99
2019-04-27T00:25:18.244Z,7.85
2019-04-27T00:28:15.153Z,7.79
2019-04-27T00:31:13.313Z,7.82
2019-04-27T00:34:13.721Z,7.80
2019-04-27T00:37:20.678Z,7.83
2019-04-27T00:40:31.011Z,7.81
2019-04-27T00:43:34.632Z,7.67
2019-04-27T00:46:27.658Z,7.76
2019-04-27T00:49:30.495Z,7.64
2019-04-27T00:52:34.887Z,7.64
2019-04-27T00:55:35.155Z,7.53
2019-04-27T00:58:34.635Z,7.43
2019-04-27T01:01:43.497Z,7.46
2019-04-27T01:04:48.657Z,7.38
2019-04-27T01:07:55.639Z,7.46
2019-04-27T01:10:56.991Z,7.52
2019-04-27T01:13:58.601Z,7.57
2019-04-27T01:17:09.860Z,7.52
2019-04-27T01:20:09.657Z,7.51
2019-04-27T01:23:10.765Z,7.49
2019-04-27T01:26:25.291Z,7.56
2019-04-27T01:29:36.537Z,7.58
2019-04-27T01:32:39.238Z,7.51
2019-04-27T01:35:39.111Z,7.45
2019-04-27T01:38:49.685Z,7.41
2019-04-27T01:42:08.896Z,7.51
2019-04-27T01:45:14.148Z,7.49
2019-04-27T01:48:23.770Z,7.34
2019-04-27T01:51:29.474Z,7.43
2019-04-27T01:54:04.719Z,7.49
2019-04-27T01:57:06.767Z,7.42
2019-04-27T02:00:06.564Z,7.49
2019-04-27T02:03:10.523Z,7.62
2019-04-27T02:06:26.855Z,7.66
2019-04-27T02:09:18.784Z,7.95
2019-04-27T02:12:29.135Z,8.10
2019-04-27T02:15:31.397Z,8.09
2019-04-27T02:18:37.448Z,8.00
2019-04-27T02:21:41.359Z,7.73
2019-04-27T02:24:46.103Z,7.68
2019-04-27T02:27:47.075Z,7.67
2019-04-27T02:31:04.421Z,7.76
2019-04-27T02:34:02.532Z,7.93
2019-04-27T02:37:11.249Z,8.02
2019-04-27T02:40:11.883Z,7.91
2019-04-27T02:43:21.376Z,7.99
2019-04-27T02:46:24.897Z,7.89
2019-04-27T02:49:23.759Z,7.90
2019-04-27T02:52:40.451Z,8.02
2019-04-27T02:55:30.431Z,8.00
2019-04-27T02:58:34.592Z,7.99
2019-04-27T03:01:43.595Z,8.05
2019-04-27T03:04:30.540Z,8.06
2019-04-27T03:07:42.828Z,7.98
2019-04-27T03:10:50.338Z,7.89
2019-04-27T03:14:34.901Z,7.80
2019-04-27T03:17:59.694Z,7.76
2019-04-27T03:21:13.210Z,7.68
2019-04-27T03:24:10.860Z,7.62
2019-04-27T03:27:27.065Z,7.64
2019-04-27T03:30:26.655Z,7.53
2019-04-27T03:33:36.311Z,7.55
2019-04-27T03:36:40.119Z,7.49
2019-04-27T03:39:45.400Z,7.46
2019-04-27T03:42:55.685Z,7.54
2019-04-27T03:45:39.782Z,7.45
2019-04-27T03:48:41.560Z,7.37
2019-04-27T03:51:32.482Z,7.30
2019-04-27T03:54:22.755Z,7.17
2019-04-27T03:57:33.035Z,7.17
2019-04-27T04:00:33.394Z,7.20
2019-04-27T04:03:50.154Z,7.17
2019-04-27T04:06:51.763Z,6.84
2019-04-27T04:10:00.116Z,6.68
2019-04-27T04:13:31.783Z,6.58
2019-04-27T04:16:39.461Z,6.61
2019-04-27T04:19:54.005Z,6.84
2019-04-27T04:22:44.427Z,6.92
2019-04-27T04:25:37.241Z,7.07
2019-04-27T04:28:41.712Z,7.28
2019-04-27T04:31:50.010Z,7.36
2019-04-27T04:35:10.912Z,7.42
2019-04-27T04:38:13.172Z,7.60
2019-04-27T04:41:15.911Z,7.73
2019-04-27T04:44:23.982Z,7.96
2019-04-27T04:47:45.497Z,7.97
2019-04-27T04:50:30.563Z,8.00
2019-04-27T04:53:36.088Z,8.12
2019-04-27T04:56:32.298Z,8.16
2019-04-27T04:59:36.282Z,8.19
2019-04-27T05:02:39.973Z,8.41
2019-04-27T05:05:33.397Z,8.51
2019-04-27T05:08:36.253Z,8.75
2019-04-27T05:11:51.618Z,8.90
2019-04-27T05:14:53.206Z,8.92
2019-04-27T05:17:59.662Z,8.61
2019-04-27T05:21:20.142Z,8.56
2019-04-27T05:24:29.291Z,8.55
2019-04-27T05:27:29.311Z,8.61
2019-04-27T05:30:21.570Z,8.63
2019-04-27T05:33:28.561Z,8.73
2019-04-27T05:37:01.114Z,8.77
2019-04-27T05:39:51.051Z,8.82
2019-04-27T05:43:01.286Z,8.83
2019-04-27T05:46:39.840Z,8.76
2019-04-27T05:49:48.523Z,8.78
2019-04-27T05:52:54.159Z,8.63
2019-04-27T05:55:49.436Z,8.76
2019-04-27T05:58:57.326Z,8.73
2019-04-27T06:02:02.101Z,8.82
2019-04-27T06:05:02.118Z,8.82
2019-04-27T06:08:02.101Z,8.95
2019-04-27T06:10:59.145Z,8.76
2019-04-27T06:14:12.951Z,8.55
2019-04-27T06:17:17.281Z,8.52
2019-04-27T06:20:11.731Z,8.66
2019-04-27T06:23:12.582Z,8.68
2019-04-27T06:26:25.599Z,8.64
2019-04-27T06:29:32.101Z,8.53
2019-04-27T06:32:32.116Z,8.56
2019-04-27T06:35:32.101Z,8.59
2019-04-27T06:38:32.583Z,8.60
2019-04-27T06:41:29.445Z,8.72
2019-04-27T06:44:41.438Z,8.74
2019-04-27T06:47:31.366Z,9.24
2019-04-27T06:50:23.903Z,9.14
2019-04-27T06:53:35.179Z,9.19
2019-04-27T06:56:34.473Z,8.78
2019-04-27T06:59:40.075Z,8.95
2019-04-27T07:02:45.375Z,9.18
2019-04-27T07:05:43.460Z,9.47
2019-04-27T07:08:49.944Z,9.47
2019-04-27T07:11:51.790Z,9.22
2019-04-27T07:14:55.249Z,9.43
2019-04-27T07:17:56.562Z,9.33
2019-04-27T07:20:59.225Z,9.55
2019-04-27T07:24:12.831Z,9.66
2019-04-27T07:27:21.213Z,9.83
2019-04-27T07:30:16.353Z,9.53
2019-04-27T07:33:18.576Z,9.79
2019-04-27T07:36:30.862Z,9.76
2019-04-27T07:39:41.801Z,10.10
2019-04-27T07:42:47.111Z,9.54
2019-04-27T07:45:39.686Z,9.45
2019-04-27T07:48:50.892Z,9.47
2019-04-27T07:51:49.860Z,9.58
2019-04-27T07:54:31.691Z,9.52
2019-04-27T07:57:19.857Z,9.46
2019-04-27T08:00:21.114Z,9.30
2019-04-27T08:03:29.433Z,9.21
2019-04-27T08:06:29.181Z,9.20
2019-04-27T08:12:20.791Z,9.23
2019-04-27T08:15:24.306Z,9.38
2019-04-27T08:18:34.471Z,9.36
2019-04-27T08:21:47.225Z,9.64
2019-04-27T08:24:17.456Z,9.79
2019-04-27T08:27:32.747Z,9.92
2019-04-27T08:30:23.192Z,10.04
2019-04-27T08:33:21.626Z,10.40
2019-04-27T08:39:13.907Z,11.27
2019-04-27T08:42:25.900Z,11.10
2019-04-27T08:45:24.992Z,10.82
2019-04-27T08:48:15.517Z,11.40
2019-04-27T08:50:45.932Z,11.38
2019-04-27T08:53:37.365Z,11.84
2019-04-27T08:56:21.332Z,12.52
2019-04-27T08:59:01.132Z,12.02
2019-04-27T09:01:58.661Z,11.91
2019-04-27T09:04:49.563Z,12.23
2019-04-27T09:07:43.383Z,11.59
2019-04-27T09:10:50.391Z,11.70
2019-04-27T09:13:59.949Z,12.02
2019-04-27T09:17:09.564Z,12.34
2019-04-27T09:20:04.670Z,12.04
2019-04-27T09:23:18.623Z,11.70
2019-04-27T09:26:24.459Z,11.40
2019-04-27T09:29:22.064Z,11.20
2019-04-27T09:31:55.278Z,10.47
2019-04-27T09:34:28.870Z,10.50
2019-04-27T09:37:06.214Z,10.76
2019-04-27T09:39:46.159Z,10.29
2019-04-27T09:42:26.720Z,9.94
2019-04-27T09:44:59.270Z,9.91
2019-04-27T09:47:32.366Z,10.25
2019-04-27T09:50:12.025Z,10.32
2019-04-27T09:52:51.035Z,10.33
2019-04-27T09:55:23.172Z,10.53
2019-04-27T09:58:18.387Z,11.01
2019-04-27T10:00:48.856Z,10.69
2019-04-27T10:03:33.680Z,10.67
2019-04-27T10:06:11.198Z,11.29
2019-04-27T10:08:58.626Z,11.61
2019-04-27T10:11:39.109Z,11.87
2019-04-27T10:14:26.422Z,12.64
2019-04-27T10:17:03.526Z,12.35
2019-04-27T10:20:13.356Z,11.69
2019-04-27T10:23:01.386Z,11.26
2019-04-27T10:25:33.477Z,11.67
2019-04-27T10:28:16.228Z,11.30
2019-04-27T10:31:11.965Z,11.43
2019-04-27T10:34:17.003Z,11.07
2019-04-27T10:37:12.513Z,10.28
2019-04-27T10:40:18.587Z,10.07
2019-04-27T10:43:13.042Z,9.99
2019-04-27T10:46:00.333Z,9.91
2019-04-27T10:48:50.104Z,10.41
2019-04-27T10:51:23.095Z,10.59
2019-04-27T10:54:04.645Z,11.31
2019-04-27T10:56:55.889Z,10.73
2019-04-27T11:00:00.311Z,11.68
2019-04-27T11:02:58.371Z,12.40
2019-04-27T11:06:18.311Z,12.18
2019-04-27T11:10:20.163Z,11.90
2019-04-27T11:13:06.355Z,11.88
2019-04-27T11:16:07.688Z,11.72
2019-04-27T11:19:01.511Z,11.20
2019-04-27T11:22:10.684Z,12.22
2019-04-27T11:25:16.445Z,13.31
2019-04-27T11:28:12.380Z,13.12
2019-04-27T11:31:01.457Z,11.78
2019-04-27T11:33:57.877Z,11.41
2019-04-27T11:37:00.125Z,11.48
2019-04-27T11:40:08.474Z,10.88
2019-04-27T11:43:05.765Z,10.83
2019-04-27T11:46:06.208Z,11.02
2019-04-27T11:48:58.166Z,10.96
2019-04-27T11:51:46.585Z,10.79
2019-04-27T11:54:28.575Z,10.56
2019-04-27T11:57:23.840Z,9.41
2019-04-27T12:00:07.462Z,8.25
2019-04-27T12:03:08.867Z,7.87
2019-04-27T12:06:08.196Z,7.64
2019-04-27T12:09:11.915Z,8.27
2019-04-27T12:12:18.157Z,9.14
2019-04-27T12:18:02.748Z,11.70
2019-04-27T12:20:55.749Z,11.09
2019-04-27T12:23:48.397Z,12.34
2019-04-27T12:27:02.919Z,14.73
2019-04-27T12:30:07.640Z,16.52
2019-04-27T12:32:55.711Z,15.02
2019-04-27T12:35:49.687Z,13.01
2019-04-27T12:38:47.478Z,11.11
2019-04-27T12:41:56.045Z,10.34
2019-04-27T12:44:42.184Z,9.95
2019-04-27T12:47:12.646Z,9.37
2019-04-27T12:49:57.481Z,8.93
2019-04-27T12:52:38.427Z,8.79
2019-04-27T12:55:38.689Z,8.59
2019-04-27T12:58:40.066Z,8.68
2019-04-27T13:01:18.051Z,8.80
2019-04-27T13:03:48.306Z,8.63
2019-04-27T13:06:25.606Z,9.00
2019-04-27T13:09:09.044Z,9.75
2019-04-27T13:11:41.310Z,11.35
2019-04-27T13:14:18.135Z,14.69
2019-04-27T13:16:50.640Z,15.89
2019-04-27T13:19:28.732Z,16.32
2019-04-27T13:22:09.060Z,18.28
2019-04-27T13:24:57.907Z,16.24
2019-04-27T13:27:33.823Z,12.93
2019-04-27T13:30:20.792Z,11.75
2019-04-27T13:32:56.714Z,12.68
2019-04-27T13:35:28.526Z,16.36
2019-04-27T13:38:01.686Z,18.45
2019-04-27T13:40:42.497Z,17.63
2019-04-27T13:43:57.393Z,15.85
2019-04-27T13:46:38.758Z,14.28
2019-04-27T13:50:06.484Z,13.02
2019-04-27T13:53:00.619Z,13.52
2019-04-27T13:56:06.444Z,17.01
2019-04-27T13:59:01.178Z,16.73
2019-04-27T14:02:01.692Z,16.69
2019-04-27T14:04:54.149Z,15.28
2019-04-27T14:07:53.347Z,13.53
2019-04-27T14:11:02.482Z,12.78
2019-04-27T14:14:07.794Z,11.67
2019-04-27T14:17:19.265Z,11.31
2019-04-27T14:20:21.755Z,10.22
2019-04-27T14:23:34.885Z,10.72
2019-04-27T14:26:43.003Z,10.73
2019-04-27T14:29:46.794Z,10.50
2019-04-27T14:32:52.860Z,10.49
2019-04-27T14:35:56.619Z,10.90
2019-04-27T14:39:01.232Z,11.78
2019-04-27T14:42:05.501Z,11.90
2019-04-27T14:45:15.835Z,11.28
2019-04-27T14:48:08.196Z,10.54
2019-04-27T14:51:08.722Z,10.48
2019-04-27T14:54:22.589Z,10.32
2019-04-27T14:57:27.120Z,9.79
2019-04-27T15:00:34.883Z,9.17
2019-04-27T15:03:32.831Z,8.86
2019-04-27T15:06:32.607Z,8.71
2019-04-27T15:09:37.504Z,8.84
2019-04-27T15:12:42.561Z,8.87
2019-04-27T15:15:43.472Z,8.82
2019-04-27T15:18:47.654Z,9.20
2019-04-27T15:21:58.594Z,9.28
2019-04-27T15:25:09.319Z,9.15
2019-04-27T15:28:07.360Z,9.33
2019-04-27T15:31:09.787Z,9.17
2019-04-27T15:34:10.936Z,8.79
2019-04-27T15:37:28.234Z,8.87
2019-04-27T15:40:29.880Z,9.03
2019-04-27T15:43:27.262Z,8.80
2019-04-27T15:45:59.515Z,8.71
2019-04-27T15:48:34.016Z,8.55
2019-04-27T15:51:25.052Z,8.64
2019-04-27T15:54:03.139Z,9.04
2019-04-27T15:56:49.094Z,9.77
2019-04-27T15:59:37.844Z,9.77
2019-04-27T16:02:22.436Z,10.01
2019-04-27T16:05:11.648Z,10.69
2019-04-27T16:08:15.816Z,9.93
2019-04-27T16:11:16.560Z,9.75
2019-04-27T16:14:13.123Z,9.73
2019-04-27T16:17:11.426Z,10.09
2019-04-27T16:20:08.547Z,9.81
2019-04-27T16:23:18.181Z,10.32
2019-04-27T16:25:54.168Z,9.40
2019-04-27T16:28:53.324Z,9.11
2019-04-27T16:32:02.616Z,8.94
2019-04-27T16:34:56.423Z,8.93
2019-04-27T16:38:07.784Z,8.77
2019-04-27T16:41:03.860Z,8.40
2019-04-27T16:44:06.892Z,8.62
2019-04-27T16:47:00.877Z,8.72
2019-04-27T16:49:48.274Z,8.54
2019-04-27T16:52:42.832Z,8.23
2019-04-27T16:55:35.353Z,7.88
2019-04-27T16:58:36.497Z,7.82
2019-04-27T17:01:46.316Z,7.79
2019-04-27T17:04:38.783Z,7.87
2019-04-27T17:07:37.426Z,8.08
2019-04-27T17:10:25.474Z,8.00
2019-04-27T17:13:00.548Z,8.17
2019-04-27T17:15:58.893Z,8.01
2019-04-27T17:19:06.521Z,8.00
2019-04-27T17:22:01.249Z,7.81
2019-04-27T17:24:58.838Z,7.66
2019-04-27T17:28:03.866Z,7.74
2019-04-27T17:30:50.742Z,7.65
2019-04-27T17:33:53.915Z,7.64
2019-04-27T17:36:54.791Z,7.60
2019-04-27T17:39:57.595Z,7.41
2019-04-27T17:42:48.231Z,7.35
2019-04-27T17:45:36.257Z,7.38
2019-04-27T17:48:20.808Z,7.29
2019-04-27T17:51:18.069Z,7.45
2019-04-27T17:54:11.388Z,7.58
2019-04-27T17:57:10.406Z,7.31
2019-04-27T18:00:13.774Z,7.36
2019-04-27T18:03:05.400Z,7.20
2019-04-27T18:05:49.320Z,7.09
2019-04-27T18:08:49.515Z,7.00
2019-04-27T18:11:44.272Z,6.90
2019-04-27T18:14:44.166Z,6.95
2019-04-27T18:17:48.360Z,6.97
2019-04-27T18:20:38.578Z,6.95
2019-04-27T18:23:38.592Z,6.87
2019-04-27T18:26:29.589Z,6.96
2019-04-27T18:29:03.991Z,6.74
2019-04-27T18:32:14.053Z,6.82
2019-04-27T18:35:09.010Z,6.81
2019-04-27T18:38:01.995Z,6.67
2019-04-27T18:40:53.539Z,6.67
2019-04-27T18:43:51.106Z,6.75
2019-04-27T18:46:38.458Z,6.54
2019-04-27T18:49:36.454Z,6.44
2019-04-27T18:52:52.760Z,6.33
2019-04-27T18:55:32.507Z,6.27
2019-04-27T18:58:25.995Z,6.27
2019-04-27T19:01:08.611Z,6.26
2019-04-27T19:03:58.714Z,6.18
2019-04-27T19:07:00.970Z,6.18
2019-04-27T19:10:03.546Z,6.16
2019-04-27T19:13:00.208Z,6.20
2019-04-27T19:16:00.396Z,6.10
2019-04-27T19:18:43.722Z,6.10
2019-04-27T19:21:36.028Z,6.14
2019-04-27T19:24:35.746Z,6.15
2019-04-27T19:28:04.065Z,6.12
2019-04-27T19:30:45.039Z,6.17
2019-04-27T19:33:30.861Z,6.26
2019-04-27T19:36:27.953Z,6.22
2019-04-27T19:38:59.808Z,6.24
2019-04-27T19:41:39.663Z,6.15
2019-04-27T19:44:40.920Z,6.10
2019-04-27T19:47:26.540Z,6.12
2019-04-27T19:50:13.401Z,6.00
2019-04-27T19:53:16.349Z,6.02
2019-04-27T19:56:16.149Z,6.00
2019-04-27T19:59:08.938Z,5.96
2019-04-27T20:02:04.365Z,6.03
2019-04-27T20:05:16.418Z,6.07
2019-04-27T20:08:04.725Z,6.06
2019-04-27T20:11:05.611Z,6.10
2019-04-27T20:13:52.510Z,6.14
2019-04-27T20:16:51.944Z,6.18
2019-04-27T20:20:02.874Z,6.09
2019-04-27T20:23:02.867Z,6.11
2019-04-27T20:25:54.766Z,6.12
2019-04-27T20:28:34.406Z,6.14
2019-04-27T20:31:36.335Z,6.15
2019-04-27T20:34:16.570Z,6.11
2019-04-27T20:37:12.128Z,6.10
2019-04-27T20:40:07.043Z,6.13
2019-04-27T20:43:02.231Z,6.18
2019-04-27T20:45:56.004Z,6.18
2019-04-27T20:48:46.089Z,6.16
2019-04-27T20:51:50.949Z,6.16
2019-04-27T20:54:41.458Z,6.15
2019-04-27T20:57:23.731Z,6.15
2019-04-27T21:00:19.452Z,6.18
2019-04-27T21:03:51.128Z,6.14
2019-04-27T21:06:48.541Z,6.17
2019-04-27T21:09:46.015Z,6.19
2019-04-27T21:12:43.511Z,6.11
2019-04-27T21:15:43.818Z,6.07
2019-04-27T21:18:43.006Z,6.03
2019-04-27T21:21:51.086Z,6.03
2019-04-27T21:24:44.046Z,5.99
2019-04-27T21:27:51.356Z,6.08
2019-04-27T21:30:38.628Z,5.99
2019-04-27T21:33:38.627Z,5.94
2019-04-27T21:36:37.178Z,5.97
2019-04-27T21:39:27.952Z,5.93
2019-04-27T21:42:14.399Z,5.88
2019-04-27T21:45:04.535Z,5.89
2019-04-27T21:48:06.094Z,5.94
2019-04-27T21:51:03.125Z,5.76
2019-04-27T21:54:10.237Z,5.78
2019-04-27T21:57:11.022Z,5.75
2019-04-27T22:00:13.243Z,5.69
2019-04-27T22:03:17.991Z,5.73
2019-04-27T22:06:26.123Z,5.78
2019-04-27T22:09:10.780Z,5.87
2019-04-27T22:12:11.192Z,5.81
2019-04-27T22:15:08.641Z,5.76
2019-04-27T22:18:15.897Z,5.73
2019-04-27T22:21:16.327Z,5.73
2019-04-27T22:24:30.075Z,5.73
2019-04-27T22:27:20.413Z,5.73
2019-04-27T22:30:18.143Z,5.73
2019-04-27T22:33:30.199Z,5.83
2019-04-27T22:36:29.199Z,5.83
2019-04-27T22:39:04.606Z,5.77
2019-04-27T22:42:14.809Z,5.74
2019-04-27T22:45:18.491Z,5.72
2019-04-27T22:48:31.426Z,5.61
2019-04-27T22:51:36.341Z,5.60
2019-04-27T22:54:32.862Z,5.44
2019-04-27T22:57:38.194Z,5.45
2019-04-27T23:01:07.618Z,5.41
2019-04-27T23:04:11.493Z,5.43
2019-04-27T23:07:15.092Z,5.50
2019-04-27T23:10:14.503Z,5.57
2019-04-27T23:13:11.899Z,5.46
2019-04-27T23:16:30.767Z,5.45
2019-04-27T23:19:30.896Z,5.40
2019-04-27T23:22:31.622Z,5.37
2019-04-27T23:25:35.129Z,5.37
2019-04-27T23:28:51.430Z,5.41
2019-04-27T23:32:08.303Z,5.38
2019-04-27T23:35:22.349Z,5.39
2019-04-27T23:38:21.672Z,5.31
2019-04-27T23:41:38.791Z,5.27
2019-04-27T23:44:47.605Z,5.25
2019-04-27T23:47:55.665Z,5.10
2019-04-27T23:50:49.595Z,5.09
2019-04-27T23:53:57.255Z,4.99
2019-04-27T23:57:05.793Z,4.89
